sensor_id;sensor_type;location;lat;lon;timestamp;P1;durP1;ratioP1;P2;durP2;ratioP2
16137;SDS011;8174;43.550;5.206;2022-12-07T00:01:09;40.93;;;23.07;;
16137;SDS011;8174;43.550;5.206;2022-12-07T00:03:37;44.43;;;25.83;;
16137;SDS011;8174;43.550;5.206;2022-12-07T00:06:06;40.80;;;23.67;;
16137;SDS011;8174;43.550;5.206;2022-12-07T00:08:34;39.87;;;23.00;;
16137;SDS011;8174;43.550;5.206;2022-12-07T00:11:03;39.57;;;22.37;;
16137;SDS011;8174;43.550;5.206;2022-12-07T00:13:30;42.07;;;23.80;;
16137;SDS011;8174;43.550;5.206;2022-12-07T00:15:59;41.73;;;23.20;;
16137;SDS011;8174;43.550;5.206;2022-12-07T00:18:29;45.53;;;25.10;;
16137;SDS011;8174;43.550;5.206;2022-12-07T00:20:59;42.30;;;24.50;;
16137;SDS011;8174;43.550;5.206;2022-12-07T00:23:27;39.07;;;22.53;;
16137;SDS011;8174;43.550;5.206;2022-12-07T00:25:55;38.90;;;22.53;;
16137;SDS011;8174;43.550;5.206;2022-12-07T00:28:23;39.57;;;22.90;;
16137;SDS011;8174;43.550;5.206;2022-12-07T00:30:51;40.13;;;22.37;;
16137;SDS011;8174;43.550;5.206;2022-12-07T00:33:19;39.20;;;22.80;;
16137;SDS011;8174;43.550;5.206;2022-12-07T00:35:54;37.53;;;22.60;;
16137;SDS011;8174;43.550;5.206;2022-12-07T00:38:22;40.67;;;24.00;;
16137;SDS011;8174;43.550;5.206;2022-12-07T00:40:53;42.17;;;23.37;;
16137;SDS011;8174;43.550;5.206;2022-12-07T00:43:21;40.93;;;23.67;;
16137;SDS011;8174;43.550;5.206;2022-12-07T00:45:49;41.17;;;23.27;;
16137;SDS011;8174;43.550;5.206;2022-12-07T00:48:16;41.30;;;24.77;;
16137;SDS011;8174;43.550;5.206;2022-12-07T00:50:44;42.63;;;24.20;;
16137;SDS011;8174;43.550;5.206;2022-12-07T00:53:13;42.80;;;24.43;;
16137;SDS011;8174;43.550;5.206;2022-12-07T00:55:41;42.93;;;24.47;;
16137;SDS011;8174;43.550;5.206;2022-12-07T00:58:09;46.17;;;24.67;;
16137;SDS011;8174;43.550;5.206;2022-12-07T01:00:41;46.00;;;25.03;;
16137;SDS011;8174;43.550;5.206;2022-12-07T01:03:09;42.93;;;25.13;;
16137;SDS011;8174;43.550;5.206;2022-12-07T01:05:37;42.27;;;23.93;;
16137;SDS011;8174;43.550;5.206;2022-12-07T01:08:05;44.13;;;25.03;;
16137;SDS011;8174;43.550;5.206;2022-12-07T01:10:35;46.70;;;25.60;;
16137;SDS011;8174;43.550;5.206;2022-12-07T01:13:02;46.87;;;25.83;;
16137;SDS011;8174;43.550;5.206;2022-12-07T01:15:31;46.37;;;24.40;;
16137;SDS011;8174;43.550;5.206;2022-12-07T01:17:58;41.67;;;23.27;;
16137;SDS011;8174;43.550;5.206;2022-12-07T01:20:26;43.23;;;24.03;;
16137;SDS011;8174;43.550;5.206;2022-12-07T01:22:55;40.93;;;23.00;;
16137;SDS011;8174;43.550;5.206;2022-12-07T01:25:22;42.63;;;23.97;;
16137;SDS011;8174;43.550;5.206;2022-12-07T01:27:51;39.27;;;22.33;;
16137;SDS011;8174;43.550;5.206;2022-12-07T01:30:19;41.43;;;22.47;;
16137;SDS011;8174;43.550;5.206;2022-12-07T01:32:47;39.97;;;21.93;;
16137;SDS011;8174;43.550;5.206;2022-12-07T01:38:19;38.23;;;21.50;;
16137;SDS011;8174;43.550;5.206;2022-12-07T01:40:53;39.10;;;21.67;;
16137;SDS011;8174;43.550;5.206;2022-12-07T01:43:23;39.83;;;22.07;;
16137;SDS011;8174;43.550;5.206;2022-12-07T01:45:51;37.90;;;20.83;;
16137;SDS011;8174;43.550;5.206;2022-12-07T01:48:19;36.20;;;21.60;;
16137;SDS011;8174;43.550;5.206;2022-12-07T01:50:49;37.37;;;22.10;;
16137;SDS011;8174;43.550;5.206;2022-12-07T01:53:17;38.17;;;21.40;;
16137;SDS011;8174;43.550;5.206;2022-12-07T01:55:47;35.07;;;20.67;;
16137;SDS011;8174;43.550;5.206;2022-12-07T01:58:17;38.30;;;21.20;;
16137;SDS011;8174;43.550;5.206;2022-12-07T02:00:46;36.47;;;21.67;;
16137;SDS011;8174;43.550;5.206;2022-12-07T02:03:14;40.07;;;22.27;;
16137;SDS011;8174;43.550;5.206;2022-12-07T02:05:43;40.13;;;21.93;;
16137;SDS011;8174;43.550;5.206;2022-12-07T02:08:12;38.93;;;21.83;;
16137;SDS011;8174;43.550;5.206;2022-12-07T02:10:39;38.73;;;22.10;;
16137;SDS011;8174;43.550;5.206;2022-12-07T02:13:08;37.90;;;22.03;;
16137;SDS011;8174;43.550;5.206;2022-12-07T02:15:44;34.83;;;19.87;;
16137;SDS011;8174;43.550;5.206;2022-12-07T02:18:16;37.97;;;20.33;;
16137;SDS011;8174;43.550;5.206;2022-12-07T02:20:45;40.50;;;22.37;;
16137;SDS011;8174;43.550;5.206;2022-12-07T02:23:30;36.97;;;20.47;;
16137;SDS011;8174;43.550;5.206;2022-12-07T02:28:59;37.77;;;21.13;;
16137;SDS011;8174;43.550;5.206;2022-12-07T02:31:28;37.83;;;20.67;;
16137;SDS011;8174;43.550;5.206;2022-12-07T02:33:57;38.50;;;20.20;;
16137;SDS011;8174;43.550;5.206;2022-12-07T02:36:29;36.57;;;20.47;;
16137;SDS011;8174;43.550;5.206;2022-12-07T02:38:58;34.47;;;19.77;;
16137;SDS011;8174;43.550;5.206;2022-12-07T04:04:26;41.00;;;22.43;;
16137;SDS011;8174;43.550;5.206;2022-12-07T04:06:54;38.80;;;21.20;;
16137;SDS011;8174;43.550;5.206;2022-12-07T04:09:21;35.87;;;20.67;;
16137;SDS011;8174;43.550;5.206;2022-12-07T04:11:49;35.27;;;19.53;;
16137;SDS011;8174;43.550;5.206;2022-12-07T04:14:17;33.97;;;19.90;;
16137;SDS011;8174;43.550;5.206;2022-12-07T04:16:45;36.60;;;20.63;;
16137;SDS011;8174;43.550;5.206;2022-12-07T04:19:13;34.73;;;19.67;;
16137;SDS011;8174;43.550;5.206;2022-12-07T04:21:42;35.60;;;20.23;;
16137;SDS011;8174;43.550;5.206;2022-12-07T04:24:11;37.07;;;20.07;;
16137;SDS011;8174;43.550;5.206;2022-12-07T04:26:38;34.57;;;19.83;;
16137;SDS011;8174;43.550;5.206;2022-12-07T04:29:06;33.70;;;19.13;;
16137;SDS011;8174;43.550;5.206;2022-12-07T04:31:34;33.10;;;19.30;;
16137;SDS011;8174;43.550;5.206;2022-12-07T04:34:01;36.97;;;20.80;;
16137;SDS011;8174;43.550;5.206;2022-12-07T04:36:29;32.33;;;18.93;;
16137;SDS011;8174;43.550;5.206;2022-12-07T04:38:58;34.77;;;19.17;;
16137;SDS011;8174;43.550;5.206;2022-12-07T04:41:26;34.07;;;20.00;;
16137;SDS011;8174;43.550;5.206;2022-12-07T04:43:54;36.43;;;19.77;;
16137;SDS011;8174;43.550;5.206;2022-12-07T04:46:22;34.77;;;20.10;;
16137;SDS011;8174;43.550;5.206;2022-12-07T04:48:49;35.03;;;19.40;;
16137;SDS011;8174;43.550;5.206;2022-12-07T04:51:18;35.07;;;20.20;;
16137;SDS011;8174;43.550;5.206;2022-12-07T04:53:46;35.10;;;20.40;;
16137;SDS011;8174;43.550;5.206;2022-12-07T04:56:16;35.87;;;19.67;;
16137;SDS011;8174;43.550;5.206;2022-12-07T04:58:44;34.03;;;18.67;;
16137;SDS011;8174;43.550;5.206;2022-12-07T05:01:12;36.33;;;19.57;;
16137;SDS011;8174;43.550;5.206;2022-12-07T05:03:40;40.80;;;19.80;;
16137;SDS011;8174;43.550;5.206;2022-12-07T05:06:07;41.60;;;20.57;;
16137;SDS011;8174;43.550;5.206;2022-12-07T05:08:35;37.07;;;19.93;;
16137;SDS011;8174;43.550;5.206;2022-12-07T05:11:03;39.67;;;20.20;;
16137;SDS011;8174;43.550;5.206;2022-12-07T05:13:33;38.63;;;20.50;;
16137;SDS011;8174;43.550;5.206;2022-12-07T05:16:00;37.47;;;20.33;;
16137;SDS011;8174;43.550;5.206;2022-12-07T05:18:28;36.50;;;20.60;;
16137;SDS011;8174;43.550;5.206;2022-12-07T05:20:56;41.60;;;20.40;;
16137;SDS011;8174;43.550;5.206;2022-12-07T05:23:23;38.43;;;21.17;;
16137;SDS011;8174;43.550;5.206;2022-12-07T05:25:51;44.03;;;22.03;;
16137;SDS011;8174;43.550;5.206;2022-12-07T05:28:18;43.27;;;22.43;;
16137;SDS011;8174;43.550;5.206;2022-12-07T05:30:47;39.73;;;20.93;;
16137;SDS011;8174;43.550;5.206;2022-12-07T05:33:15;43.07;;;21.90;;
16137;SDS011;8174;43.550;5.206;2022-12-07T05:35:43;41.63;;;21.50;;
16137;SDS011;8174;43.550;5.206;2022-12-07T05:38:10;46.90;;;23.20;;
16137;SDS011;8174;43.550;5.206;2022-12-07T05:40:38;46.00;;;22.30;;
16137;SDS011;8174;43.550;5.206;2022-12-07T05:43:05;47.40;;;23.13;;
16137;SDS011;8174;43.550;5.206;2022-12-07T05:45:32;45.40;;;22.67;;
16137;SDS011;8174;43.550;5.206;2022-12-07T05:48:01;45.90;;;22.80;;
16137;SDS011;8174;43.550;5.206;2022-12-07T05:50:28;53.07;;;23.23;;
16137;SDS011;8174;43.550;5.206;2022-12-07T05:52:56;47.23;;;23.63;;
16137;SDS011;8174;43.550;5.206;2022-12-07T05:55:24;47.73;;;23.27;;
16137;SDS011;8174;43.550;5.206;2022-12-07T05:57:51;45.47;;;23.07;;
16137;SDS011;8174;43.550;5.206;2022-12-07T06:00:32;48.90;;;23.43;;
16137;SDS011;8174;43.550;5.206;2022-12-07T06:03:01;49.23;;;23.77;;
16137;SDS011;8174;43.550;5.206;2022-12-07T06:05:29;49.40;;;23.47;;
16137;SDS011;8174;43.550;5.206;2022-12-07T06:07:56;48.50;;;24.03;;
16137;SDS011;8174;43.550;5.206;2022-12-07T06:10:24;51.50;;;23.93;;
16137;SDS011;8174;43.550;5.206;2022-12-07T06:12:51;57.37;;;24.87;;
16137;SDS011;8174;43.550;5.206;2022-12-07T06:15:18;59.50;;;26.50;;
16137;SDS011;8174;43.550;5.206;2022-12-07T06:17:48;58.77;;;24.33;;
16137;SDS011;8174;43.550;5.206;2022-12-07T06:20:17;60.83;;;24.77;;
16137;SDS011;8174;43.550;5.206;2022-12-07T06:22:45;51.60;;;24.73;;
16137;SDS011;8174;43.550;5.206;2022-12-07T06:25:13;57.77;;;25.13;;
16137;SDS011;8174;43.550;5.206;2022-12-07T06:27:40;52.33;;;25.33;;
16137;SDS011;8174;43.550;5.206;2022-12-07T06:30:08;56.87;;;25.50;;
16137;SDS011;8174;43.550;5.206;2022-12-07T06:32:36;53.10;;;23.93;;
16137;SDS011;8174;43.550;5.206;2022-12-07T06:35:04;49.43;;;24.17;;
16137;SDS011;8174;43.550;5.206;2022-12-07T06:37:33;50.63;;;24.00;;
16137;SDS011;8174;43.550;5.206;2022-12-07T06:40:00;48.33;;;23.57;;
16137;SDS011;8174;43.550;5.206;2022-12-07T06:42:28;46.27;;;24.20;;
16137;SDS011;8174;43.550;5.206;2022-12-07T06:44:56;51.67;;;25.93;;
16137;SDS011;8174;43.550;5.206;2022-12-07T06:47:23;52.83;;;25.13;;
16137;SDS011;8174;43.550;5.206;2022-12-07T06:49:51;44.93;;;24.03;;
16137;SDS011;8174;43.550;5.206;2022-12-07T06:52:19;43.30;;;23.20;;
16137;SDS011;8174;43.550;5.206;2022-12-07T06:54:48;45.40;;;22.63;;
16137;SDS011;8174;43.550;5.206;2022-12-07T06:57:16;39.00;;;22.00;;
16137;SDS011;8174;43.550;5.206;2022-12-07T06:59:46;48.00;;;23.03;;
16137;SDS011;8174;43.550;5.206;2022-12-07T07:02:14;46.13;;;22.50;;
16137;SDS011;8174;43.550;5.206;2022-12-07T07:04:41;46.53;;;24.23;;
16137;SDS011;8174;43.550;5.206;2022-12-07T07:07:09;50.57;;;25.43;;
16137;SDS011;8174;43.550;5.206;2022-12-07T07:09:36;52.77;;;25.13;;
16137;SDS011;8174;43.550;5.206;2022-12-07T07:12:05;52.83;;;25.40;;
16137;SDS011;8174;43.550;5.206;2022-12-07T07:14:33;51.13;;;26.83;;
16137;SDS011;8174;43.550;5.206;2022-12-07T07:17:00;61.63;;;28.17;;
16137;SDS011;8174;43.550;5.206;2022-12-07T07:19:28;56.47;;;25.63;;
16137;SDS011;8174;43.550;5.206;2022-12-07T07:21:56;53.50;;;27.93;;
16137;SDS011;8174;43.550;5.206;2022-12-07T07:24:24;54.17;;;27.13;;
16137;SDS011;8174;43.550;5.206;2022-12-07T07:26:51;50.30;;;26.23;;
16137;SDS011;8174;43.550;5.206;2022-12-07T07:29:20;59.70;;;26.97;;
16137;SDS011;8174;43.550;5.206;2022-12-07T07:31:48;48.20;;;25.17;;
16137;SDS011;8174;43.550;5.206;2022-12-07T07:34:20;46.57;;;24.53;;
16137;SDS011;8174;43.550;5.206;2022-12-07T07:36:48;47.33;;;22.67;;
16137;SDS011;8174;43.550;5.206;2022-12-07T07:39:15;43.80;;;23.07;;
16137;SDS011;8174;43.550;5.206;2022-12-07T07:41:43;43.80;;;23.30;;
16137;SDS011;8174;43.550;5.206;2022-12-07T07:44:11;43.27;;;23.33;;
16137;SDS011;8174;43.550;5.206;2022-12-07T07:46:40;43.43;;;23.87;;
16137;SDS011;8174;43.550;5.206;2022-12-07T07:49:08;45.97;;;24.87;;
16137;SDS011;8174;43.550;5.206;2022-12-07T07:51:36;41.37;;;22.97;;
16137;SDS011;8174;43.550;5.206;2022-12-07T07:54:03;43.43;;;23.43;;
16137;SDS011;8174;43.550;5.206;2022-12-07T07:56:32;43.73;;;22.07;;
16137;SDS011;8174;43.550;5.206;2022-12-07T07:58:59;43.83;;;21.67;;
16137;SDS011;8174;43.550;5.206;2022-12-07T08:01:27;39.23;;;21.47;;
16137;SDS011;8174;43.550;5.206;2022-12-07T09:28:39;22.00;;;12.60;;
16137;SDS011;8174;43.550;5.206;2022-12-07T09:31:07;20.10;;;12.50;;
16137;SDS011;8174;43.550;5.206;2022-12-07T09:33:35;20.33;;;12.60;;
16137;SDS011;8174;43.550;5.206;2022-12-07T09:36:02;22.47;;;13.13;;
16137;SDS011;8174;43.550;5.206;2022-12-07T09:38:30;19.13;;;12.63;;
16137;SDS011;8174;43.550;5.206;2022-12-07T09:40:58;22.57;;;13.73;;
16137;SDS011;8174;43.550;5.206;2022-12-07T09:43:31;20.37;;;13.00;;
16137;SDS011;8174;43.550;5.206;2022-12-07T09:46:00;18.00;;;11.10;;
16137;SDS011;8174;43.550;5.206;2022-12-07T09:48:29;22.37;;;12.40;;
16137;SDS011;8174;43.550;5.206;2022-12-07T09:50:57;19.87;;;12.67;;
16137;SDS011;8174;43.550;5.206;2022-12-07T09:53:25;19.33;;;11.73;;
16137;SDS011;8174;43.550;5.206;2022-12-07T09:55:54;19.77;;;12.23;;
16137;SDS011;8174;43.550;5.206;2022-12-07T09:58:23;14.37;;;9.87;;
16137;SDS011;8174;43.550;5.206;2022-12-07T10:00:52;17.17;;;10.47;;
16137;SDS011;8174;43.550;5.206;2022-12-07T10:13:46;14.03;;;9.57;;
16137;SDS011;8174;43.550;5.206;2022-12-07T10:16:35;14.87;;;9.57;;
16137;SDS011;8174;43.550;5.206;2022-12-07T10:19:21;16.63;;;9.93;;
16137;SDS011;8174;43.550;5.206;2022-12-07T10:21:59;13.30;;;9.47;;
16137;SDS011;8174;43.550;5.206;2022-12-07T10:24:27;16.80;;;9.83;;
16137;SDS011;8174;43.550;5.206;2022-12-07T10:26:55;19.23;;;10.80;;
16137;SDS011;8174;43.550;5.206;2022-12-07T10:29:24;13.13;;;9.03;;
16137;SDS011;8174;43.550;5.206;2022-12-07T10:31:56;12.63;;;7.70;;
16137;SDS011;8174;43.550;5.206;2022-12-07T10:34:25;12.10;;;8.43;;
16137;SDS011;8174;43.550;5.206;2022-12-07T10:36:55;11.23;;;7.57;;
16137;SDS011;8174;43.550;5.206;2022-12-07T10:39:40;12.23;;;8.03;;
16137;SDS011;8174;43.550;5.206;2022-12-07T10:42:15;10.53;;;6.60;;
16137;SDS011;8174;43.550;5.206;2022-12-07T10:44:47;10.73;;;7.30;;
16137;SDS011;8174;43.550;5.206;2022-12-07T10:47:20;13.70;;;8.13;;
16137;SDS011;8174;43.550;5.206;2022-12-07T10:49:55;11.17;;;7.70;;
16137;SDS011;8174;43.550;5.206;2022-12-07T10:52:42;11.57;;;5.90;;
16137;SDS011;8174;43.550;5.206;2022-12-07T12:26:38;8.40;;;4.83;;
16137;SDS011;8174;43.550;5.206;2022-12-07T12:29:06;6.77;;;5.17;;
16137;SDS011;8174;43.550;5.206;2022-12-07T12:36:57;6.70;;;4.47;;
16137;SDS011;8174;43.550;5.206;2022-12-07T12:39:25;6.83;;;4.67;;
16137;SDS011;8174;43.550;5.206;2022-12-07T12:42:05;5.97;;;4.27;;
16137;SDS011;8174;43.550;5.206;2022-12-07T12:47:43;5.90;;;4.00;;
16137;SDS011;8174;43.550;5.206;2022-12-07T12:50:20;6.33;;;4.47;;
16137;SDS011;8174;43.550;5.206;2022-12-07T12:52:58;6.10;;;4.00;;
16137;SDS011;8174;43.550;5.206;2022-12-07T12:58:28;7.37;;;4.90;;
16137;SDS011;8174;43.550;5.206;2022-12-07T13:03:51;7.87;;;4.93;;
16137;SDS011;8174;43.550;5.206;2022-12-07T13:06:20;6.93;;;4.20;;
16137;SDS011;8174;43.550;5.206;2022-12-07T13:09:04;6.63;;;4.43;;
16137;SDS011;8174;43.550;5.206;2022-12-07T13:11:46;8.27;;;4.87;;
16137;SDS011;8174;43.550;5.206;2022-12-07T13:14:41;8.57;;;4.70;;
16137;SDS011;8174;43.550;5.206;2022-12-07T13:17:10;7.83;;;4.60;;
16137;SDS011;8174;43.550;5.206;2022-12-07T13:22:41;7.53;;;4.63;;
16137;SDS011;8174;43.550;5.206;2022-12-07T13:25:12;7.37;;;4.83;;
16137;SDS011;8174;43.550;5.206;2022-12-07T13:27:48;7.23;;;4.27;;
16137;SDS011;8174;43.550;5.206;2022-12-07T13:30:21;8.47;;;5.30;;
16137;SDS011;8174;43.550;5.206;2022-12-07T13:32:51;9.97;;;5.07;;
16137;SDS011;8174;43.550;5.206;2022-12-07T13:35:30;6.63;;;4.73;;
16137;SDS011;8174;43.550;5.206;2022-12-07T13:37:58;7.40;;;4.97;;
16137;SDS011;8174;43.550;5.206;2022-12-07T13:40:29;6.93;;;5.00;;
16137;SDS011;8174;43.550;5.206;2022-12-07T13:42:57;7.40;;;4.73;;
16137;SDS011;8174;43.550;5.206;2022-12-07T13:45:28;9.90;;;5.00;;
16137;SDS011;8174;43.550;5.206;2022-12-07T13:48:11;8.90;;;5.10;;
16137;SDS011;8174;43.550;5.206;2022-12-07T13:50:42;9.60;;;5.60;;
16137;SDS011;8174;43.550;5.206;2022-12-07T13:53:12;9.00;;;5.30;;
16137;SDS011;8174;43.550;5.206;2022-12-07T13:55:44;7.97;;;4.93;;
16137;SDS011;8174;43.550;5.206;2022-12-07T13:58:14;10.33;;;5.60;;
16137;SDS011;8174;43.550;5.206;2022-12-07T14:00:44;8.00;;;5.60;;
16137;SDS011;8174;43.550;5.206;2022-12-07T14:03:28;12.73;;;6.07;;
16137;SDS011;8174;43.550;5.206;2022-12-07T14:06:05;14.23;;;5.80;;
16137;SDS011;8174;43.550;5.206;2022-12-07T14:08:34;11.03;;;5.93;;
16137;SDS011;8174;43.550;5.206;2022-12-07T14:11:02;9.03;;;6.13;;
16137;SDS011;8174;43.550;5.206;2022-12-07T14:13:32;10.50;;;6.17;;
16137;SDS011;8174;43.550;5.206;2022-12-07T14:16:03;9.97;;;5.37;;
16137;SDS011;8174;43.550;5.206;2022-12-07T14:18:36;9.47;;;5.97;;
16137;SDS011;8174;43.550;5.206;2022-12-07T14:21:05;8.70;;;5.90;;
16137;SDS011;8174;43.550;5.206;2022-12-07T14:23:33;9.07;;;6.03;;
16137;SDS011;8174;43.550;5.206;2022-12-07T14:26:05;11.80;;;6.47;;
16137;SDS011;8174;43.550;5.206;2022-12-07T14:28:34;10.07;;;6.13;;
16137;SDS011;8174;43.550;5.206;2022-12-07T14:31:07;11.17;;;5.90;;
16137;SDS011;8174;43.550;5.206;2022-12-07T14:33:38;12.00;;;6.80;;
16137;SDS011;8174;43.550;5.206;2022-12-07T14:36:08;9.67;;;6.00;;
16137;SDS011;8174;43.550;5.206;2022-12-07T14:38:36;12.80;;;6.90;;
16137;SDS011;8174;43.550;5.206;2022-12-07T14:41:09;10.10;;;6.60;;
16137;SDS011;8174;43.550;5.206;2022-12-07T14:43:55;10.80;;;6.67;;
16137;SDS011;8174;43.550;5.206;2022-12-07T14:46:24;9.97;;;6.77;;
16137;SDS011;8174;43.550;5.206;2022-12-07T14:48:53;12.40;;;7.00;;
16137;SDS011;8174;43.550;5.206;2022-12-07T14:51:24;10.87;;;6.80;;
16137;SDS011;8174;43.550;5.206;2022-12-07T14:53:53;13.17;;;8.17;;
16137;SDS011;8174;43.550;5.206;2022-12-07T14:56:20;14.87;;;8.07;;
16137;SDS011;8174;43.550;5.206;2022-12-07T14:58:48;12.37;;;7.90;;
16137;SDS011;8174;43.550;5.206;2022-12-07T15:01:16;12.47;;;7.80;;
16137;SDS011;8174;43.550;5.206;2022-12-07T15:03:47;12.43;;;8.00;;
16137;SDS011;8174;43.550;5.206;2022-12-07T15:06:16;14.60;;;7.90;;
16137;SDS011;8174;43.550;5.206;2022-12-07T15:08:45;13.00;;;8.13;;
16137;SDS011;8174;43.550;5.206;2022-12-07T15:11:13;12.50;;;7.50;;
16137;SDS011;8174;43.550;5.206;2022-12-07T15:13:45;12.30;;;8.13;;
16137;SDS011;8174;43.550;5.206;2022-12-07T15:16:30;13.23;;;7.90;;
16137;SDS011;8174;43.550;5.206;2022-12-07T15:18:59;11.80;;;7.73;;
16137;SDS011;8174;43.550;5.206;2022-12-07T15:21:29;12.77;;;7.70;;
16137;SDS011;8174;43.550;5.206;2022-12-07T15:23:58;15.10;;;9.13;;
16137;SDS011;8174;43.550;5.206;2022-12-07T15:26:26;13.87;;;8.87;;
16137;SDS011;8174;43.550;5.206;2022-12-07T15:28:54;14.53;;;9.37;;
16137;SDS011;8174;43.550;5.206;2022-12-07T15:31:23;13.90;;;8.50;;
16137;SDS011;8174;43.550;5.206;2022-12-07T15:33:52;12.23;;;8.17;;
16137;SDS011;8174;43.550;5.206;2022-12-07T15:36:22;15.73;;;9.67;;
16137;SDS011;8174;43.550;5.206;2022-12-07T15:38:51;17.33;;;9.73;;
16137;SDS011;8174;43.550;5.206;2022-12-07T15:41:18;16.77;;;9.40;;
16137;SDS011;8174;43.550;5.206;2022-12-07T15:43:46;12.90;;;8.67;;
16137;SDS011;8174;43.550;5.206;2022-12-07T15:46:31;13.97;;;9.13;;
16137;SDS011;8174;43.550;5.206;2022-12-07T15:49:00;14.77;;;8.53;;
16137;SDS011;8174;43.550;5.206;2022-12-07T15:51:30;17.10;;;9.27;;
16137;SDS011;8174;43.550;5.206;2022-12-07T15:53:59;15.73;;;9.90;;
16137;SDS011;8174;43.550;5.206;2022-12-07T15:56:27;16.83;;;9.50;;
16137;SDS011;8174;43.550;5.206;2022-12-07T15:58:58;15.30;;;9.03;;
16137;SDS011;8174;43.550;5.206;2022-12-07T16:01:26;19.97;;;10.03;;
16137;SDS011;8174;43.550;5.206;2022-12-07T16:03:56;15.90;;;9.87;;
16137;SDS011;8174;43.550;5.206;2022-12-07T16:06:25;18.43;;;10.27;;
16137;SDS011;8174;43.550;5.206;2022-12-07T16:08:55;16.90;;;10.40;;
16137;SDS011;8174;43.550;5.206;2022-12-07T16:11:25;21.90;;;10.40;;
16137;SDS011;8174;43.550;5.206;2022-12-07T16:13:54;17.53;;;10.50;;
16137;SDS011;8174;43.550;5.206;2022-12-07T16:16:21;26.50;;;13.73;;
16137;SDS011;8174;43.550;5.206;2022-12-07T16:18:50;22.40;;;12.27;;
16137;SDS011;8174;43.550;5.206;2022-12-07T16:21:18;22.03;;;12.97;;
16137;SDS011;8174;43.550;5.206;2022-12-07T16:23:46;22.77;;;13.53;;
16137;SDS011;8174;43.550;5.206;2022-12-07T16:26:16;18.63;;;11.73;;
16137;SDS011;8174;43.550;5.206;2022-12-07T16:28:45;25.03;;;13.23;;
16137;SDS011;8174;43.550;5.206;2022-12-07T16:31:14;18.47;;;11.47;;
16137;SDS011;8174;43.550;5.206;2022-12-07T16:33:43;37.47;;;20.37;;
16137;SDS011;8174;43.550;5.206;2022-12-07T16:36:13;118.17;;;51.30;;
16137;SDS011;8174;43.550;5.206;2022-12-07T16:38:42;31.67;;;17.80;;
16137;SDS011;8174;43.550;5.206;2022-12-07T16:41:12;30.70;;;16.73;;
16137;SDS011;8174;43.550;5.206;2022-12-07T16:43:47;43.67;;;20.97;;
16137;SDS011;8174;43.550;5.206;2022-12-07T16:46:15;36.97;;;19.10;;
16137;SDS011;8174;43.550;5.206;2022-12-07T16:48:43;37.77;;;21.20;;
16137;SDS011;8174;43.550;5.206;2022-12-07T16:51:12;33.13;;;18.70;;
16137;SDS011;8174;43.550;5.206;2022-12-07T16:53:41;32.60;;;18.77;;
16137;SDS011;8174;43.550;5.206;2022-12-07T16:56:10;40.03;;;21.67;;
16137;SDS011;8174;43.550;5.206;2022-12-07T16:58:38;35.53;;;19.93;;
16137;SDS011;8174;43.550;5.206;2022-12-07T17:01:13;42.57;;;23.50;;
16137;SDS011;8174;43.550;5.206;2022-12-07T17:03:45;59.37;;;31.87;;
16137;SDS011;8174;43.550;5.206;2022-12-07T17:06:15;44.67;;;25.37;;
16137;SDS011;8174;43.550;5.206;2022-12-07T17:08:52;33.63;;;17.97;;
16137;SDS011;8174;43.550;5.206;2022-12-07T17:11:22;22.23;;;13.30;;
16137;SDS011;8174;43.550;5.206;2022-12-07T17:13:51;28.30;;;15.33;;
16137;SDS011;8174;43.550;5.206;2022-12-07T17:16:38;33.10;;;16.57;;
16137;SDS011;8174;43.550;5.206;2022-12-07T17:19:06;29.53;;;15.90;;
16137;SDS011;8174;43.550;5.206;2022-12-07T17:21:35;30.93;;;16.93;;
16137;SDS011;8174;43.550;5.206;2022-12-07T17:24:04;33.67;;;16.13;;
16137;SDS011;8174;43.550;5.206;2022-12-07T17:26:33;34.80;;;18.00;;
16137;SDS011;8174;43.550;5.206;2022-12-07T17:29:02;32.80;;;15.23;;
16137;SDS011;8174;43.550;5.206;2022-12-07T17:31:30;28.53;;;16.20;;
16137;SDS011;8174;43.550;5.206;2022-12-07T17:34:00;27.87;;;15.57;;
16137;SDS011;8174;43.550;5.206;2022-12-07T17:36:29;66.33;;;36.67;;
16137;SDS011;8174;43.550;5.206;2022-12-07T17:38:57;31.90;;;16.90;;
16137;SDS011;8174;43.550;5.206;2022-12-07T17:41:27;27.00;;;14.50;;
16137;SDS011;8174;43.550;5.206;2022-12-07T17:44:12;24.30;;;14.27;;
16137;SDS011;8174;43.550;5.206;2022-12-07T17:46:41;32.10;;;15.43;;
16137;SDS011;8174;43.550;5.206;2022-12-07T17:49:10;24.73;;;13.87;;
16137;SDS011;8174;43.550;5.206;2022-12-07T17:51:38;25.30;;;14.00;;
16137;SDS011;8174;43.550;5.206;2022-12-07T17:54:23;23.87;;;14.07;;
16137;SDS011;8174;43.550;5.206;2022-12-07T17:56:51;27.50;;;16.07;;
16137;SDS011;8174;43.550;5.206;2022-12-07T17:59:18;36.70;;;18.07;;
16137;SDS011;8174;43.550;5.206;2022-12-07T18:01:46;31.77;;;17.70;;
16137;SDS011;8174;43.550;5.206;2022-12-07T18:04:15;32.00;;;17.27;;
16137;SDS011;8174;43.550;5.206;2022-12-07T18:06:42;30.83;;;16.57;;
16137;SDS011;8174;43.550;5.206;2022-12-07T18:09:10;33.97;;;17.20;;
16137;SDS011;8174;43.550;5.206;2022-12-07T18:11:38;30.63;;;16.50;;
16137;SDS011;8174;43.550;5.206;2022-12-07T18:14:05;29.40;;;15.70;;
16137;SDS011;8174;43.550;5.206;2022-12-07T18:16:33;32.13;;;16.57;;
16137;SDS011;8174;43.550;5.206;2022-12-07T18:19:01;31.07;;;17.63;;
16137;SDS011;8174;43.550;5.206;2022-12-07T18:21:31;33.37;;;17.40;;
16137;SDS011;8174;43.550;5.206;2022-12-07T18:23:59;37.13;;;20.37;;
16137;SDS011;8174;43.550;5.206;2022-12-07T18:26:28;38.23;;;21.97;;
16137;SDS011;8174;43.550;5.206;2022-12-07T18:28:57;40.87;;;22.83;;
16137;SDS011;8174;43.550;5.206;2022-12-07T18:31:25;38.27;;;21.80;;
16137;SDS011;8174;43.550;5.206;2022-12-07T18:33:52;39.60;;;23.10;;
16137;SDS011;8174;43.550;5.206;2022-12-07T18:36:20;45.93;;;24.67;;
16137;SDS011;8174;43.550;5.206;2022-12-07T18:38:49;44.00;;;24.00;;
16137;SDS011;8174;43.550;5.206;2022-12-07T18:41:17;33.27;;;19.03;;
16137;SDS011;8174;43.550;5.206;2022-12-07T18:43:45;39.07;;;21.63;;
16137;SDS011;8174;43.550;5.206;2022-12-07T18:46:13;46.77;;;22.97;;
16137;SDS011;8174;43.550;5.206;2022-12-07T18:48:42;38.80;;;21.53;;
16137;SDS011;8174;43.550;5.206;2022-12-07T18:51:10;47.57;;;27.50;;
16137;SDS011;8174;43.550;5.206;2022-12-07T18:53:41;46.80;;;26.23;;
16137;SDS011;8174;43.550;5.206;2022-12-07T18:56:11;52.30;;;27.50;;
16137;SDS011;8174;43.550;5.206;2022-12-07T18:58:39;42.60;;;24.13;;
16137;SDS011;8174;43.550;5.206;2022-12-07T19:01:29;38.93;;;20.53;;
16137;SDS011;8174;43.550;5.206;2022-12-07T19:03:59;48.43;;;25.70;;
16137;SDS011;8174;43.550;5.206;2022-12-07T19:06:27;45.63;;;24.83;;
16137;SDS011;8174;43.550;5.206;2022-12-07T19:08:56;47.33;;;24.43;;
16137;SDS011;8174;43.550;5.206;2022-12-07T19:11:26;46.87;;;24.63;;
16137;SDS011;8174;43.550;5.206;2022-12-07T19:14:11;47.67;;;24.57;;
16137;SDS011;8174;43.550;5.206;2022-12-07T19:16:39;41.67;;;22.77;;
16137;SDS011;8174;43.550;5.206;2022-12-07T19:19:07;44.47;;;22.10;;
16137;SDS011;8174;43.550;5.206;2022-12-07T19:21:35;39.50;;;21.73;;
16137;SDS011;8174;43.550;5.206;2022-12-07T19:24:02;38.63;;;21.27;;
16137;SDS011;8174;43.550;5.206;2022-12-07T19:26:31;50.20;;;28.07;;
16137;SDS011;8174;43.550;5.206;2022-12-07T19:28:59;54.40;;;31.13;;
16137;SDS011;8174;43.550;5.206;2022-12-07T19:31:27;52.37;;;28.80;;
16137;SDS011;8174;43.550;5.206;2022-12-07T19:33:55;54.10;;;29.20;;
16137;SDS011;8174;43.550;5.206;2022-12-07T19:36:23;52.73;;;27.77;;
16137;SDS011;8174;43.550;5.206;2022-12-07T19:38:50;56.17;;;31.73;;
16137;SDS011;8174;43.550;5.206;2022-12-07T19:41:18;44.77;;;24.47;;
16137;SDS011;8174;43.550;5.206;2022-12-07T19:44:06;39.80;;;21.63;;
16137;SDS011;8174;43.550;5.206;2022-12-07T19:46:34;38.47;;;20.67;;